sensor_id;sensor_type;location;lat;lon;timestamp;temperature;humidity
68378;DHT22;55322;48.146;11.516;2023-10-09T00:00:56;12.97;87.83
68378;DHT22;55322;48.146;11.516;2023-10-09T00:03:29;13.00;87.48
68378;DHT22;55322;48.146;11.516;2023-10-09T00:05:54;12.99;87.42
68378;DHT22;55322;48.146;11.516;2023-10-09T00:08:20;12.89;88.42
68378;DHT22;55322;48.146;11.516;2023-10-09T00:11:01;12.86;88.62
68378;DHT22;55322;48.146;11.516;2023-10-09T00:13:46;12.84;88.71
68378;DHT22;55322;48.146;11.516;2023-10-09T00:16:17;12.82;88.97
68378;DHT22;55322;48.146;11.516;2023-10-09T00:18:47;12.84;89.08
68378;DHT22;55322;48.146;11.516;2023-10-09T00:21:16;12.90;89.05
68378;DHT22;55322;48.146;11.516;2023-10-09T00:23:45;12.92;88.87
68378;DHT22;55322;48.146;11.516;2023-10-09T00:26:17;12.94;88.59
68378;DHT22;55322;48.146;11.516;2023-10-09T00:28:42;12.99;88.25
68378;DHT22;55322;48.146;11.516;2023-10-09T00:31:13;13.06;87.95
68378;DHT22;55322;48.146;11.516;2023-10-09T00:33:51;13.06;87.75
68378;DHT22;55322;48.146;11.516;2023-10-09T00:36:17;13.08;87.50
68378;DHT22;55322;48.146;11.516;2023-10-09T00:38:52;13.13;87.62
68378;DHT22;55322;48.146;11.516;2023-10-09T00:41:18;13.18;87.25
68378;DHT22;55322;48.146;11.516;2023-10-09T00:43:47;13.30;86.16
68378;DHT22;55322;48.146;11.516;2023-10-09T00:46:16;13.40;85.14
68378;DHT22;55322;48.146;11.516;2023-10-09T00:48:49;13.51;84.85
68378;DHT22;55322;48.146;11.516;2023-10-09T00:51:18;13.54;83.83
68378;DHT22;55322;48.146;11.516;2023-10-09T00:53:56;13.62;83.51
68378;DHT22;55322;48.146;11.516;2023-10-09T00:56:31;13.67;82.71
68378;DHT22;55322;48.146;11.516;2023-10-09T00:59:04;13.69;82.49
68378;DHT22;55322;48.146;11.516;2023-10-09T01:01:41;13.69;83.03
68378;DHT22;55322;48.146;11.516;2023-10-09T01:04:14;13.72;83.44
68378;DHT22;55322;48.146;11.516;2023-10-09T01:06:44;13.69;83.41
68378;DHT22;55322;48.146;11.516;2023-10-09T01:09:15;13.65;82.58
68378;DHT22;55322;48.146;11.516;2023-10-09T01:11:45;13.65;82.65
68378;DHT22;55322;48.146;11.516;2023-10-09T01:14:17;13.64;82.69
68378;DHT22;55322;48.146;11.516;2023-10-09T01:16:46;13.61;82.80
68378;DHT22;55322;48.146;11.516;2023-10-09T01:19:13;13.61;82.67
68378;DHT22;55322;48.146;11.516;2023-10-09T01:21:44;13.58;82.56
68378;DHT22;55322;48.146;11.516;2023-10-09T01:24:10;13.53;83.04
68378;DHT22;55322;48.146;11.516;2023-10-09T01:26:39;13.48;82.75
68378;DHT22;55322;48.146;11.516;2023-10-09T01:29:09;13.44;82.90
68378;DHT22;55322;48.146;11.516;2023-10-09T01:34:12;13.40;83.30
68378;DHT22;55322;48.146;11.516;2023-10-09T01:36:40;13.37;83.52
68378;DHT22;55322;48.146;11.516;2023-10-09T01:39:07;13.37;83.39
68378;DHT22;55322;48.146;11.516;2023-10-09T01:41:55;13.34;83.48
68378;DHT22;55322;48.146;11.516;2023-10-09T01:44:27;13.37;83.41
68378;DHT22;55322;48.146;11.516;2023-10-09T01:46:55;13.37;83.42
68378;DHT22;55322;48.146;11.516;2023-10-09T01:49:23;13.40;83.47
68378;DHT22;55322;48.146;11.516;2023-10-09T01:51:55;13.43;83.40
68378;DHT22;55322;48.146;11.516;2023-10-09T01:54:20;13.44;83.40
68378;DHT22;55322;48.146;11.516;2023-10-09T01:57:06;13.43;82.90
68378;DHT22;55322;48.146;11.516;2023-10-09T01:59:35;13.48;82.84
68378;DHT22;55322;48.146;11.516;2023-10-09T02:02:06;13.48;83.48
68378;DHT22;55322;48.146;11.516;2023-10-09T02:04:46;13.50;83.37
68378;DHT22;55322;48.146;11.516;2023-10-09T02:07:11;13.54;82.51
68378;DHT22;55322;48.146;11.516;2023-10-09T02:09:38;13.57;82.72
68378;DHT22;55322;48.146;11.516;2023-10-09T02:12:11;13.64;82.23
68378;DHT22;55322;48.146;11.516;2023-10-09T02:14:36;13.75;81.74
68378;DHT22;55322;48.146;11.516;2023-10-09T02:17:06;13.82;81.27
68378;DHT22;55322;48.146;11.516;2023-10-09T02:19:34;13.89;81.42
68378;DHT22;55322;48.146;11.516;2023-10-09T02:22:03;13.94;81.28
68378;DHT22;55322;48.146;11.516;2023-10-09T02:24:41;13.92;81.45
68378;DHT22;55322;48.146;11.516;2023-10-09T02:27:19;13.98;81.20
68378;DHT22;55322;48.146;11.516;2023-10-09T02:30:04;13.94;81.07
68378;DHT22;55322;48.146;11.516;2023-10-09T02:32:35;13.89;81.71
68378;DHT22;55322;48.146;11.516;2023-10-09T02:35:03;13.83;82.26
68378;DHT22;55322;48.146;11.516;2023-10-09T02:37:35;13.75;82.60
68378;DHT22;55322;48.146;11.516;2023-10-09T02:40:04;13.69;83.09
68378;DHT22;55322;48.146;11.516;2023-10-09T02:42:33;13.64;83.73
68378;DHT22;55322;48.146;11.516;2023-10-09T02:44:59;13.67;82.45
68378;DHT22;55322;48.146;11.516;2023-10-09T02:47:25;13.71;82.87
68378;DHT22;55322;48.146;11.516;2023-10-09T02:50:03;13.78;82.15
68378;DHT22;55322;48.146;11.516;2023-10-09T02:52:34;13.83;81.47
68378;DHT22;55322;48.146;11.516;2023-10-09T02:55:06;13.94;81.30
68378;DHT22;55322;48.146;11.516;2023-10-09T02:57:49;14.09;80.30
68378;DHT22;55322;48.146;11.516;2023-10-09T03:00:17;14.23;80.33
68378;DHT22;55322;48.146;11.516;2023-10-09T03:02:55;14.30;79.49
68378;DHT22;55322;48.146;11.516;2023-10-09T03:05:23;14.37;79.45
68378;DHT22;55322;48.146;11.516;2023-10-09T03:07:52;14.37;79.42
68378;DHT22;55322;48.146;11.516;2023-10-09T03:10:18;14.40;78.85
68378;DHT22;55322;48.146;11.516;2023-10-09T03:12:43;14.42;78.87
68378;DHT22;55322;48.146;11.516;2023-10-09T03:15:09;14.33;79.33
68378;DHT22;55322;48.146;11.516;2023-10-09T03:17:36;14.37;78.46
68378;DHT22;55322;48.146;11.516;2023-10-09T03:20:03;14.39;78.08
68378;DHT22;55322;48.146;11.516;2023-10-09T03:22:37;14.43;78.12
68378;DHT22;55322;48.146;11.516;2023-10-09T03:25:03;14.42;78.06
68378;DHT22;55322;48.146;11.516;2023-10-09T03:27:28;14.46;77.85
68378;DHT22;55322;48.146;11.516;2023-10-09T03:29:53;14.46;77.47
68378;DHT22;55322;48.146;11.516;2023-10-09T03:32:18;14.52;77.46
68378;DHT22;55322;48.146;11.516;2023-10-09T03:34:44;14.53;77.31
68378;DHT22;55322;48.146;11.516;2023-10-09T03:37:10;14.56;77.29
68378;DHT22;55322;48.146;11.516;2023-10-09T03:39:47;14.71;76.35
68378;DHT22;55322;48.146;11.516;2023-10-09T03:42:13;14.73;76.08
68378;DHT22;55322;48.146;11.516;2023-10-09T03:44:47;14.76;76.17
68378;DHT22;55322;48.146;11.516;2023-10-09T03:47:21;14.79;75.61
68378;DHT22;55322;48.146;11.516;2023-10-09T03:49:50;14.77;76.01
68378;DHT22;55322;48.146;11.516;2023-10-09T03:52:19;14.69;76.58
68378;DHT22;55322;48.146;11.516;2023-10-09T03:54:45;14.64;76.18
68378;DHT22;55322;48.146;11.516;2023-10-09T03:57:14;14.59;76.58
68378;DHT22;55322;48.146;11.516;2023-10-09T03:59:45;14.56;76.66
68378;DHT22;55322;48.146;11.516;2023-10-09T04:02:12;14.53;76.44
68378;DHT22;55322;48.146;11.516;2023-10-09T04:04:37;14.52;76.87
68378;DHT22;55322;48.146;11.516;2023-10-09T04:07:03;14.47;76.75
68378;DHT22;55322;48.146;11.516;2023-10-09T04:09:28;14.46;76.97
68378;DHT22;55322;48.146;11.516;2023-10-09T04:12:01;14.40;78.45
68378;DHT22;55322;48.146;11.516;2023-10-09T04:14:35;14.34;79.00
68378;DHT22;55322;48.146;11.516;2023-10-09T04:17:01;14.25;79.80
68378;DHT22;55322;48.146;11.516;2023-10-09T04:19:52;14.12;80.93
68378;DHT22;55322;48.146;11.516;2023-10-09T04:22:37;14.01;81.43
68378;DHT22;55322;48.146;11.516;2023-10-09T04:25:05;13.88;81.99
68378;DHT22;55322;48.146;11.516;2023-10-09T04:27:40;13.81;82.42
68378;DHT22;55322;48.146;11.516;2023-10-09T04:30:06;13.72;82.44
68378;DHT22;55322;48.146;11.516;2023-10-09T04:32:32;13.68;82.80
68378;DHT22;55322;48.146;11.516;2023-10-09T04:35:00;13.67;82.75
68378;DHT22;55322;48.146;11.516;2023-10-09T04:37:43;13.68;82.64
68378;DHT22;55322;48.146;11.516;2023-10-09T04:40:17;13.71;82.27
68378;DHT22;55322;48.146;11.516;2023-10-09T04:43:01;13.75;82.20
68378;DHT22;55322;48.146;11.516;2023-10-09T04:45:35;13.83;81.49
68378;DHT22;55322;48.146;11.516;2023-10-09T04:48:12;13.82;81.61
68378;DHT22;55322;48.146;11.516;2023-10-09T04:50:57;13.83;82.57
68378;DHT22;55322;48.146;11.516;2023-10-09T04:53:46;13.82;82.08
68378;DHT22;55322;48.146;11.516;2023-10-09T04:56:38;13.82;82.34
68378;DHT22;55322;48.146;11.516;2023-10-09T04:59:17;13.86;82.08
68378;DHT22;55322;48.146;11.516;2023-10-09T05:01:43;13.90;81.66
68378;DHT22;55322;48.146;11.516;2023-10-09T05:04:11;13.92;81.55
68378;DHT22;55322;48.146;11.516;2023-10-09T05:07:06;13.94;81.68
68378;DHT22;55322;48.146;11.516;2023-10-09T05:10:02;13.96;81.38
68378;DHT22;55322;48.146;11.516;2023-10-09T05:12:43;13.95;81.70
68378;DHT22;55322;48.146;11.516;2023-10-09T05:15:23;13.92;81.74
68378;DHT22;55322;48.146;11.516;2023-10-09T05:17:52;13.92;82.67
68378;DHT22;55322;48.146;11.516;2023-10-09T05:20:24;13.86;83.17
68378;DHT22;55322;48.146;11.516;2023-10-09T05:22:52;13.77;83.47
68378;DHT22;55322;48.146;11.516;2023-10-09T05:25:28;13.69;84.05
68378;DHT22;55322;48.146;11.516;2023-10-09T05:28:12;13.59;84.44
68378;DHT22;55322;48.146;11.516;2023-10-09T05:30:56;13.45;84.89
68378;DHT22;55322;48.146;11.516;2023-10-09T05:33:37;13.33;85.51
68378;DHT22;55322;48.146;11.516;2023-10-09T05:36:04;13.24;85.85
68378;DHT22;55322;48.146;11.516;2023-10-09T05:38:48;13.20;85.88
68378;DHT22;55322;48.146;11.516;2023-10-09T05:41:26;13.14;86.65
68378;DHT22;55322;48.146;11.516;2023-10-09T05:44:10;13.07;86.93
68378;DHT22;55322;48.146;11.516;2023-10-09T05:46:54;13.02;87.14
68378;DHT22;55322;48.146;11.516;2023-10-09T05:49:38;13.02;87.29
68378;DHT22;55322;48.146;11.516;2023-10-09T05:52:21;12.99;86.95
68378;DHT22;55322;48.146;11.516;2023-10-09T05:55:06;12.93;87.22
68378;DHT22;55322;48.146;11.516;2023-10-09T05:57:40;12.93;87.37
68378;DHT22;55322;48.146;11.516;2023-10-09T06:00:24;12.96;87.53
68378;DHT22;55322;48.146;11.516;2023-10-09T06:03:09;12.94;87.49
68378;DHT22;55322;48.146;11.516;2023-10-09T06:05:44;13.00;87.61
68378;DHT22;55322;48.146;11.516;2023-10-09T06:08:22;13.06;87.46
68378;DHT22;55322;48.146;11.516;2023-10-09T06:11:10;13.17;87.57
68378;DHT22;55322;48.146;11.516;2023-10-09T06:13:55;13.31;87.60
68378;DHT22;55322;48.146;11.516;2023-10-09T06:16:33;13.48;87.35
68378;DHT22;55322;48.146;11.516;2023-10-09T06:19:11;13.67;86.85
68378;DHT22;55322;48.146;11.516;2023-10-09T06:21:41;13.85;86.13
68378;DHT22;55322;48.146;11.516;2023-10-09T06:26:45;14.19;84.80
68378;DHT22;55322;48.146;11.516;2023-10-09T06:29:26;14.29;84.44
68378;DHT22;55322;48.146;11.516;2023-10-09T06:32:06;14.40;84.18
68378;DHT22;55322;48.146;11.516;2023-10-09T06:34:47;14.52;82.09
68378;DHT22;55322;48.146;11.516;2023-10-09T06:37:18;14.66;80.69
68378;DHT22;55322;48.146;11.516;2023-10-09T06:40:00;14.84;78.80
68378;DHT22;55322;48.146;11.516;2023-10-09T06:43:04;15.03;78.37
68378;DHT22;55322;48.146;11.516;2023-10-09T06:45:35;15.12;77.98
68378;DHT22;55322;48.146;11.516;2023-10-09T06:48:08;15.24;77.65
68378;DHT22;55322;48.146;11.516;2023-10-09T06:50:54;15.28;77.44
68378;DHT22;55322;48.146;11.516;2023-10-09T06:53:30;15.35;76.95
68378;DHT22;55322;48.146;11.516;2023-10-09T06:56:14;15.42;76.94
68378;DHT22;55322;48.146;11.516;2023-10-09T06:59:13;15.49;75.58
68378;DHT22;55322;48.146;11.516;2023-10-09T07:01:50;15.61;75.47
68378;DHT22;55322;48.146;11.516;2023-10-09T07:04:37;15.70;75.36
68378;DHT22;55322;48.146;11.516;2023-10-09T07:07:03;15.83;75.68
68378;DHT22;55322;48.146;11.516;2023-10-09T07:09:35;15.98;74.12
68378;DHT22;55322;48.146;11.516;2023-10-09T07:12:29;16.16;73.94
68378;DHT22;55322;48.146;11.516;2023-10-09T07:15:00;16.26;72.77
68378;DHT22;55322;48.146;11.516;2023-10-09T07:17:50;16.41;73.94
68378;DHT22;55322;48.146;11.516;2023-10-09T07:20:17;16.49;71.65
68378;DHT22;55322;48.146;11.516;2023-10-09T07:23:02;16.57;72.72
68378;DHT22;55322;48.146;11.516;2023-10-09T07:25:43;16.65;72.18
68378;DHT22;55322;48.146;11.516;2023-10-09T07:28:35;16.74;71.38
68378;DHT22;55322;48.146;11.516;2023-10-09T07:31:16;16.96;70.15
68378;DHT22;55322;48.146;11.516;2023-10-09T07:33:50;17.12;69.43
68378;DHT22;55322;48.146;11.516;2023-10-09T07:36:25;17.29;69.70
68378;DHT22;55322;48.146;11.516;2023-10-09T07:39:00;17.53;68.99
68378;DHT22;55322;48.146;11.516;2023-10-09T07:41:30;18.31;66.20
68378;DHT22;55322;48.146;11.516;2023-10-09T07:43:58;19.05;63.29
68378;DHT22;55322;48.146;11.516;2023-10-09T07:46:23;19.35;62.44
68378;DHT22;55322;48.146;11.516;2023-10-09T07:49:00;19.48;61.55
68378;DHT22;55322;48.146;11.516;2023-10-09T07:51:34;19.71;60.91
68378;DHT22;55322;48.146;11.516;2023-10-09T07:54:00;19.83;60.98
68378;DHT22;55322;48.146;11.516;2023-10-09T07:56:42;19.80;59.39
68378;DHT22;55322;48.146;11.516;2023-10-09T07:59:14;19.84;60.01
68378;DHT22;55322;48.146;11.516;2023-10-09T08:01:48;19.87;59.95
68378;DHT22;55322;48.146;11.516;2023-10-09T08:04:30;19.97;60.45
68378;DHT22;55322;48.146;11.516;2023-10-09T08:07:13;20.06;59.23
68378;DHT22;55322;48.146;11.516;2023-10-09T08:09:51;20.18;59.14
68378;DHT22;55322;48.146;11.516;2023-10-09T08:12:37;20.17;59.37
68378;DHT22;55322;48.146;11.516;2023-10-09T08:15:24;20.10;60.30
68378;DHT22;55322;48.146;11.516;2023-10-09T08:18:16;20.03;58.87
68378;DHT22;55322;48.146;11.516;2023-10-09T08:20:53;20.10;60.59
68378;DHT22;55322;48.146;11.516;2023-10-09T08:23:23;20.23;59.59
68378;DHT22;55322;48.146;11.516;2023-10-09T08:26:03;20.45;58.87
68378;DHT22;55322;48.146;11.516;2023-10-09T08:28:38;20.72;57.68
68378;DHT22;55322;48.146;11.516;2023-10-09T08:31:14;20.85;57.93
68378;DHT22;55322;48.146;11.516;2023-10-09T08:33:58;20.94;56.93
68378;DHT22;55322;48.146;11.516;2023-10-09T08:36:28;21.08;56.85
68378;DHT22;55322;48.146;11.516;2023-10-09T08:38:55;21.16;56.61
68378;DHT22;55322;48.146;11.516;2023-10-09T08:41:24;21.46;56.43
68378;DHT22;55322;48.146;11.516;2023-10-09T08:43:56;21.80;54.66
68378;DHT22;55322;48.146;11.516;2023-10-09T08:46:24;21.73;54.22
68378;DHT22;55322;48.146;11.516;2023-10-09T08:48:52;21.51;55.76
68378;DHT22;55322;48.146;11.516;2023-10-09T08:51:19;21.30;57.74
68378;DHT22;55322;48.146;11.516;2023-10-09T08:53:46;21.16;57.84
68378;DHT22;55322;48.146;11.516;2023-10-09T08:56:13;21.00;58.07
68378;DHT22;55322;48.146;11.516;2023-10-09T08:58:40;20.91;59.33
68378;DHT22;55322;48.146;11.516;2023-10-09T09:01:06;20.85;58.04
68378;DHT22;55322;48.146;11.516;2023-10-09T09:03:38;20.75;59.36
68378;DHT22;55322;48.146;11.516;2023-10-09T09:06:06;20.69;59.26
68378;DHT22;55322;48.146;11.516;2023-10-09T09:08:32;20.76;58.32
68378;DHT22;55322;48.146;11.516;2023-10-09T09:11:03;20.71;56.82
68378;DHT22;55322;48.146;11.516;2023-10-09T09:13:44;20.75;56.42
68378;DHT22;55322;48.146;11.516;2023-10-09T09:18:55;20.94;54.85
68378;DHT22;55322;48.146;11.516;2023-10-09T09:21:43;21.03;55.49
68378;DHT22;55322;48.146;11.516;2023-10-09T09:24:13;21.13;53.40
68378;DHT22;55322;48.146;11.516;2023-10-09T09:26:48;21.19;55.36
68378;DHT22;55322;48.146;11.516;2023-10-09T09:29:24;21.25;55.27
68378;DHT22;55322;48.146;11.516;2023-10-09T09:32:03;21.33;55.46
68378;DHT22;55322;48.146;11.516;2023-10-09T09:34:50;21.36;53.70
68378;DHT22;55322;48.146;11.516;2023-10-09T09:37:29;21.46;55.47
68378;DHT22;55322;48.146;11.516;2023-10-09T09:39:59;21.61;55.43
68378;DHT22;55322;48.146;11.516;2023-10-09T09:42:37;21.63;53.61
68378;DHT22;55322;48.146;11.516;2023-10-09T09:45:07;21.59;53.19
68378;DHT22;55322;48.146;11.516;2023-10-09T09:47:33;21.51;54.92
68378;DHT22;55322;48.146;11.516;2023-10-09T09:50:01;21.49;53.57
68378;DHT22;55322;48.146;11.516;2023-10-09T09:52:36;21.39;54.19
68378;DHT22;55322;48.146;11.516;2023-10-09T09:55:07;21.46;54.88
68378;DHT22;55322;48.146;11.516;2023-10-09T09:57:40;21.50;54.21
68378;DHT22;55322;48.146;11.516;2023-10-09T10:00:09;21.47;54.21
68378;DHT22;55322;48.146;11.516;2023-10-09T10:02:55;21.50;54.72
68378;DHT22;55322;48.146;11.516;2023-10-09T10:05:24;21.49;54.27
68378;DHT22;55322;48.146;11.516;2023-10-09T10:07:54;21.43;54.72
68378;DHT22;55322;48.146;11.516;2023-10-09T10:10:40;21.51;54.23
68378;DHT22;55322;48.146;11.516;2023-10-09T10:16:16;21.69;52.56
68378;DHT22;55322;48.146;11.516;2023-10-09T10:19:00;21.83;52.58
68378;DHT22;55322;48.146;11.516;2023-10-09T10:21:33;22.03;53.94
68378;DHT22;55322;48.146;11.516;2023-10-09T10:24:04;22.28;55.14
68378;DHT22;55322;48.146;11.516;2023-10-09T10:26:35;22.40;51.71
68378;DHT22;55322;48.146;11.516;2023-10-09T10:29:20;22.48;53.41
68378;DHT22;55322;48.146;11.516;2023-10-09T10:31:56;22.58;52.81
68378;DHT22;55322;48.146;11.516;2023-10-09T10:34:23;22.61;51.11
68378;DHT22;55322;48.146;11.516;2023-10-09T10:36:53;22.69;51.39
68378;DHT22;55322;48.146;11.516;2023-10-09T10:39:25;22.62;53.12
68378;DHT22;55322;48.146;11.516;2023-10-09T10:42:08;22.62;52.12
68378;DHT22;55322;48.146;11.516;2023-10-09T10:44:52;22.49;52.33
68378;DHT22;55322;48.146;11.516;2023-10-09T10:47:26;22.37;51.12
68378;DHT22;55322;48.146;11.516;2023-10-09T10:49:58;22.31;50.75
68378;DHT22;55322;48.146;11.516;2023-10-09T10:52:24;22.30;50.33
68378;DHT22;55322;48.146;11.516;2023-10-09T10:55:08;22.24;52.87
68378;DHT22;55322;48.146;11.516;2023-10-09T10:57:43;22.21;50.42
68378;DHT22;55322;48.146;11.516;2023-10-09T11:00:32;22.25;52.08
68378;DHT22;55322;48.146;11.516;2023-10-09T11:03:22;22.34;51.40
68378;DHT22;55322;48.146;11.516;2023-10-09T11:05:55;22.56;49.22
68378;DHT22;55322;48.146;11.516;2023-10-09T11:08:24;22.69;48.49
68378;DHT22;55322;48.146;11.516;2023-10-09T11:11:12;22.89;49.98
68378;DHT22;55322;48.146;11.516;2023-10-09T11:13:42;22.98;48.33
68378;DHT22;55322;48.146;11.516;2023-10-09T11:16:24;23.03;46.59
68378;DHT22;55322;48.146;11.516;2023-10-09T11:19:10;23.59;46.06
68378;DHT22;55322;48.146;11.516;2023-10-09T11:21:55;24.26;45.95
68378;DHT22;55322;48.146;11.516;2023-10-09T11:24:33;24.51;42.98
68378;DHT22;55322;48.146;11.516;2023-10-09T11:27:00;24.66;44.64
68378;DHT22;55322;48.146;11.516;2023-10-09T11:29:30;24.90;46.27
68378;DHT22;55322;48.146;11.516;2023-10-09T11:32:08;25.13;44.31
68378;DHT22;55322;48.146;11.516;2023-10-09T11:34:46;25.02;43.13
68378;DHT22;55322;48.146;11.516;2023-10-09T11:37:23;24.61;43.58
68378;DHT22;55322;48.146;11.516;2023-10-09T11:39:54;24.44;44.47
68378;DHT22;55322;48.146;11.516;2023-10-09T11:42:21;24.31;43.78
68378;DHT22;55322;48.146;11.516;2023-10-09T11:45:07;24.77;41.73
68378;DHT22;55322;48.146;11.516;2023-10-09T11:47:57;25.03;42.98
68378;DHT22;55322;48.146;11.516;2023-10-09T11:50:43;24.86;43.98
68378;DHT22;55322;48.146;11.516;2023-10-09T11:53:10;24.65;43.25
68378;DHT22;55322;48.146;11.516;2023-10-09T11:55:59;24.12;43.16
68378;DHT22;55322;48.146;11.516;2023-10-09T11:58:24;23.73;45.97
68378;DHT22;55322;48.146;11.516;2023-10-09T12:00:53;23.61;44.46
68378;DHT22;55322;48.146;11.516;2023-10-09T12:03:25;23.53;42.94
68378;DHT22;55322;48.146;11.516;2023-10-09T12:05:55;23.40;46.21
68378;DHT22;55322;48.146;11.516;2023-10-09T12:08:22;23.39;45.73
68378;DHT22;55322;48.146;11.516;2023-10-09T12:10:47;23.37;46.00
68378;DHT22;55322;48.146;11.516;2023-10-09T12:13:13;23.17;44.76
68378;DHT22;55322;48.146;11.516;2023-10-09T12:15:40;23.03;46.01
68378;DHT22;55322;48.146;11.516;2023-10-09T12:18:09;22.92;47.92
68378;DHT22;55322;48.146;11.516;2023-10-09T12:20:40;22.76;46.61
68378;DHT22;55322;48.146;11.516;2023-10-09T12:23:05;22.66;46.88
68378;DHT22;55322;48.146;11.516;2023-10-09T12:25:33;22.55;45.77
68378;DHT22;55322;48.146;11.516;2023-10-09T12:27:59;22.51;46.68
68378;DHT22;55322;48.146;11.516;2023-10-09T12:30:27;22.41;46.61
68378;DHT22;55322;48.146;11.516;2023-10-09T12:32:53;22.24;48.17
68378;DHT22;55322;48.146;11.516;2023-10-09T12:35:19;22.18;46.75
68378;DHT22;55322;48.146;11.516;2023-10-09T12:37:45;22.03;48.73
68378;DHT22;55322;48.146;11.516;2023-10-09T12:40:11;21.89;48.63
68378;DHT22;55322;48.146;11.516;2023-10-09T12:42:36;21.81;47.98
68378;DHT22;55322;48.146;11.516;2023-10-09T12:45:05;21.76;48.05
68378;DHT22;55322;48.146;11.516;2023-10-09T12:47:34;21.73;47.75
68378;DHT22;55322;48.146;11.516;2023-10-09T12:50:06;21.59;50.38
68378;DHT22;55322;48.146;11.516;2023-10-09T12:52:39;21.54;49.78
68378;DHT22;55322;48.146;11.516;2023-10-09T12:55:05;21.46;49.18
68378;DHT22;55322;48.146;11.516;2023-10-09T12:57:35;21.43;50.56
68378;DHT22;55322;48.146;11.516;2023-10-09T13:00:02;21.43;49.67
68378;DHT22;55322;48.146;11.516;2023-10-09T13:02:36;21.36;51.25
68378;DHT22;55322;48.146;11.516;2023-10-09T13:05:01;21.32;51.37
68378;DHT22;55322;48.146;11.516;2023-10-09T13:07:29;21.20;52.85
68378;DHT22;55322;48.146;11.516;2023-10-09T13:09:55;21.15;50.59
68378;DHT22;55322;48.146;11.516;2023-10-09T13:12:37;21.09;52.24
68378;DHT22;55322;48.146;11.516;2023-10-09T13:15:10;21.03;51.77
68378;DHT22;55322;48.146;11.516;2023-10-09T13:17:36;20.99;52.55
68378;DHT22;55322;48.146;11.516;2023-10-09T13:20:03;20.96;54.58
68378;DHT22;55322;48.146;11.516;2023-10-09T13:22:38;20.92;54.18
68378;DHT22;55322;48.146;11.516;2023-10-09T13:25:05;20.85;54.14
68378;DHT22;55322;48.146;11.516;2023-10-09T13:27:30;20.82;55.32
68378;DHT22;55322;48.146;11.516;2023-10-09T13:30:00;20.82;54.16
68378;DHT22;55322;48.146;11.516;2023-10-09T13:32:31;20.81;54.02
68378;DHT22;55322;48.146;11.516;2023-10-09T13:35:03;20.78;54.35
68378;DHT22;55322;48.146;11.516;2023-10-09T13:37:29;20.75;54.28
68378;DHT22;55322;48.146;11.516;2023-10-09T13:39:57;20.74;54.50
68378;DHT22;55322;48.146;11.516;2023-10-09T13:42:22;20.65;56.20
68378;DHT22;55322;48.146;11.516;2023-10-09T13:44:51;20.59;55.47
68378;DHT22;55322;48.146;11.516;2023-10-09T13:47:19;20.54;54.52
68378;DHT22;55322;48.146;11.516;2023-10-09T13:49:46;20.51;54.42
68378;DHT22;55322;48.146;11.516;2023-10-09T13:52:16;20.48;54.95
68378;DHT22;55322;48.146;11.516;2023-10-09T13:54:43;20.41;56.35
68378;DHT22;55322;48.146;11.516;2023-10-09T13:57:13;20.14;62.41
68378;DHT22;55322;48.146;11.516;2023-10-09T13:59:38;19.73;66.39
68378;DHT22;55322;48.146;11.516;2023-10-09T14:02:15;19.25;70.93
68378;DHT22;55322;48.146;11.516;2023-10-09T14:04:45;18.78;72.41
68378;DHT22;55322;48.146;11.516;2023-10-09T14:07:11;18.47;73.93
68378;DHT22;55322;48.146;11.516;2023-10-09T14:09:42;18.45;71.75
68378;DHT22;55322;48.146;11.516;2023-10-09T14:12:21;18.54;72.20
68378;DHT22;55322;48.146;11.516;2023-10-09T14:14:48;18.61;69.53
68378;DHT22;55322;48.146;11.516;2023-10-09T14:19:40;18.57;73.53
68378;DHT22;55322;48.146;11.516;2023-10-09T14:22:07;18.50;74.95
68378;DHT22;55322;48.146;11.516;2023-10-09T14:24:32;18.43;74.49
68378;DHT22;55322;48.146;11.516;2023-10-09T14:27:00;18.33;76.16
68378;DHT22;55322;48.146;11.516;2023-10-09T14:29:29;18.29;75.28
68378;DHT22;55322;48.146;11.516;2023-10-09T14:31:55;18.27;76.47
68378;DHT22;55322;48.146;11.516;2023-10-09T14:34:27;18.20;76.37
68378;DHT22;55322;48.146;11.516;2023-10-09T14:37:00;18.13;78.48
68378;DHT22;55322;48.146;11.516;2023-10-09T14:39:29;18.10;78.87
68378;DHT22;55322;48.146;11.516;2023-10-09T14:41:55;18.01;78.44
68378;DHT22;55322;48.146;11.516;2023-10-09T14:44:22;17.99;79.51
68378;DHT22;55322;48.146;11.516;2023-10-09T14:46:48;17.91;80.51
68378;DHT22;55322;48.146;11.516;2023-10-09T14:49:15;17.83;82.04
68378;DHT22;55322;48.146;11.516;2023-10-09T14:51:46;17.76;82.37
68378;DHT22;55322;48.146;11.516;2023-10-09T14:54:11;17.76;81.78
68378;DHT22;55322;48.146;11.516;2023-10-09T14:56:40;17.76;80.99
68378;DHT22;55322;48.146;11.516;2023-10-09T14:59:06;17.79;80.71
68378;DHT22;55322;48.146;11.516;2023-10-09T15:01:31;17.86;82.12
68378;DHT22;55322;48.146;11.516;2023-10-09T15:03:58;17.89;81.79
68378;DHT22;55322;48.146;11.516;2023-10-09T15:06:28;17.96;81.70
68378;DHT22;55322;48.146;11.516;2023-10-09T15:08:55;18.06;77.74
68378;DHT22;55322;48.146;11.516;2023-10-09T15:11:26;17.99;78.23
68378;DHT22;55322;48.146;11.516;2023-10-09T15:13:53;17.99;77.34
68378;DHT22;55322;48.146;11.516;2023-10-09T15:16:19;17.96;77.91
68378;DHT22;55322;48.146;11.516;2023-10-09T15:18:47;17.93;77.64
68378;DHT22;55322;48.146;11.516;2023-10-09T15:21:18;17.91;76.04
68378;DHT22;55322;48.146;11.516;2023-10-09T15:23:43;17.90;77.90
68378;DHT22;55322;48.146;11.516;2023-10-09T15:26:09;17.89;77.56
68378;DHT22;55322;48.146;11.516;2023-10-09T15:28:35;17.94;78.93
68378;DHT22;55322;48.146;11.516;2023-10-09T15:31:00;17.96;77.14
68378;DHT22;55322;48.146;11.516;2023-10-09T15:33:26;18.01;77.74
68378;DHT22;55322;48.146;11.516;2023-10-09T15:35:56;18.03;75.94
68378;DHT22;55322;48.146;11.516;2023-10-09T15:38:21;18.09;76.10
68378;DHT22;55322;48.146;11.516;2023-10-09T16:31:47;18.30;68.19
68378;DHT22;55322;48.146;11.516;2023-10-09T16:34:14;18.20;67.48
68378;DHT22;55322;48.146;11.516;2023-10-09T16:36:40;18.23;67.24
68378;DHT22;55322;48.146;11.516;2023-10-09T16:39:06;18.18;67.18
68378;DHT22;55322;48.146;11.516;2023-10-09T16:41:46;18.23;66.68
68378;DHT22;55322;48.146;11.516;2023-10-09T16:44:11;18.23;65.83
68378;DHT22;55322;48.146;11.516;2023-10-09T16:46:42;18.20;67.19
68378;DHT22;55322;48.146;11.516;2023-10-09T16:49:10;18.16;67.86
68378;DHT22;55322;48.146;11.516;2023-10-09T16:51:38;18.06;69.67
68378;DHT22;55322;48.146;11.516;2023-10-09T16:54:03;17.97;71.46